sensor_id;sensor_type;location;lat;lon;timestamp;P1;durP1;ratioP1;P2;durP2;ratioP2
12721;SDS011;6425;50.316;8.114;2023-04-15T00:00:00;6.6;;;2.9;;
12721;SDS011;6425;50.316;8.114;2023-04-15T00:03:00;6.6;;;2.9;;
12721;SDS011;6425;50.316;8.114;2023-04-15T00:06:00;7.9;;;2.7;;
12721;SDS011;6425;50.316;8.114;2023-04-15T00:09:00;5;;;2.9;;
12721;SDS011;6425;50.316;8.114;2023-04-15T00:12:00;5;;;2.9;;
12721;SDS011;6425;50.316;8.114;2023-04-15T00:15:00;5.4;;;2.8;;
12721;SDS011;6425;50.316;8.114;2023-04-15T00:18:00;5.4;;;2.8;;
12721;SDS011;6425;50.316;8.114;2023-04-15T00:21:00;6.4;;;2.6;;
12721;SDS011;6425;50.316;8.114;2023-04-15T00:24:00;4.6;;;2.5;;
12721;SDS011;6425;50.316;8.114;2023-04-15T00:27:00;4.6;;;2.5;;
12721;SDS011;6425;50.316;8.114;2023-04-15T00:30:00;6.4;;;2.5;;
12721;SDS011;6425;50.316;8.114;2023-04-15T00:33:00;6.4;;;2.5;;
12721;SDS011;6425;50.316;8.114;2023-04-15T00:36:00;8.4;;;3.1;;
12721;SDS011;6425;50.316;8.114;2023-04-15T00:39:00;6.1;;;2.8;;
12721;SDS011;6425;50.316;8.114;2023-04-15T00:42:00;6.1;;;2.8;;
12721;SDS011;6425;50.316;8.114;2023-04-15T00:45:00;7.3;;;2.9;;
12721;SDS011;6425;50.316;8.114;2023-04-15T00:48:00;7.3;;;2.9;;
12721;SDS011;6425;50.316;8.114;2023-04-15T00:51:00;7.1;;;2.8;;
12721;SDS011;6425;50.316;8.114;2023-04-15T00:54:00;6.5;;;2.5;;
12721;SDS011;6425;50.316;8.114;2023-04-15T00:57:00;6.5;;;2.5;;
12721;SDS011;6425;50.316;8.114;2023-04-15T01:00:00;5;;;2.5;;
12721;SDS011;6425;50.316;8.114;2023-04-15T01:03:00;5;;;2.5;;
12721;SDS011;6425;50.316;8.114;2023-04-15T01:06:00;5.8;;;2.8;;
12721;SDS011;6425;50.316;8.114;2023-04-15T01:09:00;4.4;;;2.5;;
12721;SDS011;6425;50.316;8.114;2023-04-15T01:12:00;4.4;;;2.5;;
12721;SDS011;6425;50.316;8.114;2023-04-15T01:15:00;5.2;;;2.7;;
12721;SDS011;6425;50.316;8.114;2023-04-15T01:18:00;4.3;;;2;;
12721;SDS011;6425;50.316;8.114;2023-04-15T01:21:00;4.3;;;2;;
12721;SDS011;6425;50.316;8.114;2023-04-15T01:24:00;5.2;;;2.3;;
12721;SDS011;6425;50.316;8.114;2023-04-15T01:27:00;5.2;;;2.3;;
12721;SDS011;6425;50.316;8.114;2023-04-15T01:30:00;5.6;;;2.6;;
12721;SDS011;6425;50.316;8.114;2023-04-15T01:33:00;4.1;;;2.1;;
12721;SDS011;6425;50.316;8.114;2023-04-15T01:36:00;4.1;;;2.1;;
12721;SDS011;6425;50.316;8.114;2023-04-15T01:39:00;6.2;;;2.7;;
12721;SDS011;6425;50.316;8.114;2023-04-15T01:42:00;6.2;;;2.7;;
12721;SDS011;6425;50.316;8.114;2023-04-15T01:45:00;7.3;;;2.5;;
12721;SDS011;6425;50.316;8.114;2023-04-15T01:48:00;5.8;;;2.4;;
12721;SDS011;6425;50.316;8.114;2023-04-15T01:51:00;5.8;;;2.4;;
12721;SDS011;6425;50.316;8.114;2023-04-15T01:54:00;4.6;;;2.1;;
12721;SDS011;6425;50.316;8.114;2023-04-15T01:57:00;4.6;;;2.1;;
12721;SDS011;6425;50.316;8.114;2023-04-15T02:00:00;3.7;;;1.9;;
12721;SDS011;6425;50.316;8.114;2023-04-15T02:03:00;8.2;;;2.2;;
12721;SDS011;6425;50.316;8.114;2023-04-15T02:06:00;8.2;;;2.2;;
12721;SDS011;6425;50.316;8.114;2023-04-15T02:09:00;5.1;;;3.9;;
12721;SDS011;6425;50.316;8.114;2023-04-15T02:12:00;5.1;;;3.9;;
12721;SDS011;6425;50.316;8.114;2023-04-15T02:15:00;4.7;;;2.3;;
12721;SDS011;6425;50.316;8.114;2023-04-15T02:18:00;6.5;;;2.9;;
12721;SDS011;6425;50.316;8.114;2023-04-15T02:21:00;6.5;;;2.9;;
12721;SDS011;6425;50.316;8.114;2023-04-15T02:24:00;3.5;;;2.3;;
12721;SDS011;6425;50.316;8.114;2023-04-15T02:27:00;3.5;;;2.3;;
12721;SDS011;6425;50.316;8.114;2023-04-15T02:30:00;4.8;;;2.1;;
12721;SDS011;6425;50.316;8.114;2023-04-15T02:33:00;3.9;;;2.4;;
12721;SDS011;6425;50.316;8.114;2023-04-15T02:36:00;3.9;;;2.4;;
12721;SDS011;6425;50.316;8.114;2023-04-15T02:39:00;4.3;;;2.6;;
12721;SDS011;6425;50.316;8.114;2023-04-15T02:42:00;4.3;;;2.6;;
12721;SDS011;6425;50.316;8.114;2023-04-15T02:45:00;5.1;;;2.9;;
12721;SDS011;6425;50.316;8.114;2023-04-15T02:48:00;2.2;;;1.4;;
12721;SDS011;6425;50.316;8.114;2023-04-15T02:51:15;2.2;;;1.4;;
12721;SDS011;6425;50.316;8.114;2023-04-15T02:54:00;4.1;;;1.9;;
12721;SDS011;6425;50.316;8.114;2023-04-15T02:57:00;4.1;;;1.9;;
12721;SDS011;6425;50.316;8.114;2023-04-15T03:00:00;5.5;;;2.8;;
12721;SDS011;6425;50.316;8.114;2023-04-15T03:03:00;4;;;3.6;;
12721;SDS011;6425;50.316;8.114;2023-04-15T03:06:00;4;;;3.6;;
12721;SDS011;6425;50.316;8.114;2023-04-15T03:09:00;4.2;;;2.3;;
12721;SDS011;6425;50.316;8.114;2023-04-15T03:12:00;4.2;;;2.3;;
12721;SDS011;6425;50.316;8.114;2023-04-15T03:15:00;5.9;;;2;;
12721;SDS011;6425;50.316;8.114;2023-04-15T03:18:00;5;;;2;;
12721;SDS011;6425;50.316;8.114;2023-04-15T03:21:00;5;;;2;;
12721;SDS011;6425;50.316;8.114;2023-04-15T03:24:00;4.2;;;1.4;;
12721;SDS011;6425;50.316;8.114;2023-04-15T03:27:00;4.2;;;1.4;;
12721;SDS011;6425;50.316;8.114;2023-04-15T03:30:00;5.5;;;1.9;;
12721;SDS011;6425;50.316;8.114;2023-04-15T03:33:00;5.1;;;2.1;;
12721;SDS011;6425;50.316;8.114;2023-04-15T03:36:00;5.1;;;2.1;;
12721;SDS011;6425;50.316;8.114;2023-04-15T03:39:00;5.6;;;3.3;;
12721;SDS011;6425;50.316;8.114;2023-04-15T03:42:00;5.6;;;3.3;;
12721;SDS011;6425;50.316;8.114;2023-04-15T03:45:00;3.4;;;2.2;;
12721;SDS011;6425;50.316;8.114;2023-04-15T03:48:00;6.7;;;1.9;;
12721;SDS011;6425;50.316;8.114;2023-04-15T03:51:00;6.7;;;1.9;;
12721;SDS011;6425;50.316;8.114;2023-04-15T03:54:00;3;;;1.7;;
12721;SDS011;6425;50.316;8.114;2023-04-15T03:57:00;4.5;;;1.8;;
12721;SDS011;6425;50.316;8.114;2023-04-15T04:00:00;4.5;;;1.8;;
12721;SDS011;6425;50.316;8.114;2023-04-15T04:03:00;6.4;;;1.6;;
12721;SDS011;6425;50.316;8.114;2023-04-15T04:06:00;6.4;;;1.6;;
12721;SDS011;6425;50.316;8.114;2023-04-15T04:09:00;8;;;2.4;;
12721;SDS011;6425;50.316;8.114;2023-04-15T04:12:00;5.5;;;2.3;;
12721;SDS011;6425;50.316;8.114;2023-04-15T04:15:00;5.5;;;2.3;;
12721;SDS011;6425;50.316;8.114;2023-04-15T04:18:00;4.8;;;1.7;;
12721;SDS011;6425;50.316;8.114;2023-04-15T04:21:00;4.8;;;1.7;;
12721;SDS011;6425;50.316;8.114;2023-04-15T04:24:00;7.7;;;2;;
12721;SDS011;6425;50.316;8.114;2023-04-15T04:27:00;5.6;;;2.2;;
12721;SDS011;6425;50.316;8.114;2023-04-15T04:30:00;5.6;;;2.2;;
12721;SDS011;6425;50.316;8.114;2023-04-15T04:33:00;10.3;;;2.4;;
12721;SDS011;6425;50.316;8.114;2023-04-15T04:36:00;10.3;;;2.4;;
12721;SDS011;6425;50.316;8.114;2023-04-15T04:39:00;10.7;;;2.5;;
12721;SDS011;6425;50.316;8.114;2023-04-15T04:42:00;5.9;;;1.9;;
12721;SDS011;6425;50.316;8.114;2023-04-15T04:45:00;5.9;;;1.9;;
12721;SDS011;6425;50.316;8.114;2023-04-15T04:48:00;5.8;;;2;;
12721;SDS011;6425;50.316;8.114;2023-04-15T04:51:00;5.8;;;2;;
12721;SDS011;6425;50.316;8.114;2023-04-15T04:54:00;4.9;;;1.8;;
12721;SDS011;6425;50.316;8.114;2023-04-15T04:57:00;5;;;1.8;;
12721;SDS011;6425;50.316;8.114;2023-04-15T05:00:00;5;;;1.8;;
12721;SDS011;6425;50.316;8.114;2023-04-15T05:03:00;5.5;;;2.2;;
12721;SDS011;6425;50.316;8.114;2023-04-15T05:06:00;5.5;;;2.2;;
12721;SDS011;6425;50.316;8.114;2023-04-15T05:09:00;5.8;;;1.9;;
12721;SDS011;6425;50.316;8.114;2023-04-15T05:12:00;6.7;;;2.3;;
12721;SDS011;6425;50.316;8.114;2023-04-15T05:15:00;6.7;;;2.3;;
12721;SDS011;6425;50.316;8.114;2023-04-15T05:18:00;7.2;;;2.2;;
12721;SDS011;6425;50.316;8.114;2023-04-15T05:21:00;7.2;;;2.2;;
12721;SDS011;6425;50.316;8.114;2023-04-15T05:24:00;7.7;;;2.8;;
12721;SDS011;6425;50.316;8.114;2023-04-15T05:31:42;7.7;;;2.8;;
12721;SDS011;6425;50.316;8.114;2023-04-15T05:31:42;7.7;;;2.8;;
12721;SDS011;6425;50.316;8.114;2023-04-15T05:33:00;7.7;;;2.8;;
12721;SDS011;6425;50.316;8.114;2023-04-15T05:36:00;5.9;;;2.4;;
12721;SDS011;6425;50.316;8.114;2023-04-15T05:39:00;8.3;;;2.6;;
12721;SDS011;6425;50.316;8.114;2023-04-15T05:42:00;7.4;;;2.9;;
12721;SDS011;6425;50.316;8.114;2023-04-15T05:45:00;7.4;;;2.9;;
12721;SDS011;6425;50.316;8.114;2023-04-15T05:48:00;5.4;;;2.6;;
12721;SDS011;6425;50.316;8.114;2023-04-15T05:51:00;5.4;;;2.6;;
12721;SDS011;6425;50.316;8.114;2023-04-15T05:54:00;5.6;;;2.6;;
12721;SDS011;6425;50.316;8.114;2023-04-15T05:57:00;4.7;;;2.5;;
12721;SDS011;6425;50.316;8.114;2023-04-15T06:00:00;4.7;;;2.5;;
12721;SDS011;6425;50.316;8.114;2023-04-15T06:03:00;5.1;;;2.7;;
12721;SDS011;6425;50.316;8.114;2023-04-15T06:06:00;5.1;;;2.7;;
12721;SDS011;6425;50.316;8.114;2023-04-15T06:09:00;3.4;;;2.4;;
12721;SDS011;6425;50.316;8.114;2023-04-15T06:12:00;7.2;;;2.8;;
12721;SDS011;6425;50.316;8.114;2023-04-15T06:15:00;7.2;;;2.8;;
12721;SDS011;6425;50.316;8.114;2023-04-15T06:18:00;6.7;;;2.6;;
12721;SDS011;6425;50.316;8.114;2023-04-15T06:21:00;6.5;;;2.5;;
12721;SDS011;6425;50.316;8.114;2023-04-15T06:24:00;6.4;;;2.5;;
12721;SDS011;6425;50.316;8.114;2023-04-15T06:27:00;7.3;;;2.6;;
12721;SDS011;6425;50.316;8.114;2023-04-15T06:30:00;7.3;;;2.6;;
12721;SDS011;6425;50.316;8.114;2023-04-15T06:33:00;11.8;;;5.2;;
12721;SDS011;6425;50.316;8.114;2023-04-15T06:36:00;10.9;;;5.8;;
12721;SDS011;6425;50.316;8.114;2023-04-15T06:39:00;10.9;;;5.8;;
12721;SDS011;6425;50.316;8.114;2023-04-15T06:42:00;12.6;;;6.5;;
12721;SDS011;6425;50.316;8.114;2023-04-15T06:45:00;12.6;;;6.5;;
12721;SDS011;6425;50.316;8.114;2023-04-15T06:48:00;6.6;;;2.9;;
12721;SDS011;6425;50.316;8.114;2023-04-15T06:51:00;9.2;;;3.6;;
12721;SDS011;6425;50.316;8.114;2023-04-15T06:54:00;9.2;;;3.6;;
12721;SDS011;6425;50.316;8.114;2023-04-15T06:57:00;5.8;;;2.9;;
12721;SDS011;6425;50.316;8.114;2023-04-15T07:00:00;5.8;;;2.9;;
12721;SDS011;6425;50.316;8.114;2023-04-15T07:03:00;6.3;;;2.7;;
12721;SDS011;6425;50.316;8.114;2023-04-15T07:06:00;5.5;;;2.1;;
12721;SDS011;6425;50.316;8.114;2023-04-15T07:09:00;5.5;;;2.1;;
12721;SDS011;6425;50.316;8.114;2023-04-15T07:12:00;6.1;;;2.7;;
12721;SDS011;6425;50.316;8.114;2023-04-15T07:15:00;6.1;;;2.7;;
12721;SDS011;6425;50.316;8.114;2023-04-15T07:18:00;4.4;;;3.1;;
12721;SDS011;6425;50.316;8.114;2023-04-15T07:21:00;8.4;;;3.9;;
12721;SDS011;6425;50.316;8.114;2023-04-15T07:24:00;8.4;;;3.9;;
12721;SDS011;6425;50.316;8.114;2023-04-15T07:27:00;7.2;;;4;;
12721;SDS011;6425;50.316;8.114;2023-04-15T07:30:00;7.2;;;4;;
12721;SDS011;6425;50.316;8.114;2023-04-15T07:33:00;10.2;;;5.6;;
12721;SDS011;6425;50.316;8.114;2023-04-15T07:36:00;10.2;;;5.1;;
12721;SDS011;6425;50.316;8.114;2023-04-15T07:39:00;10.2;;;5.1;;
12721;SDS011;6425;50.316;8.114;2023-04-15T07:42:00;8.6;;;4.7;;
12721;SDS011;6425;50.316;8.114;2023-04-15T07:45:00;8.6;;;4.7;;
12721;SDS011;6425;50.316;8.114;2023-04-15T07:48:00;6.2;;;4.8;;
12721;SDS011;6425;50.316;8.114;2023-04-15T07:51:00;7.5;;;4.6;;
12721;SDS011;6425;50.316;8.114;2023-04-15T07:54:00;7.5;;;4.6;;
12721;SDS011;6425;50.316;8.114;2023-04-15T07:57:00;9.8;;;4.4;;
12721;SDS011;6425;50.316;8.114;2023-04-15T08:00:00;9.8;;;4.4;;
12721;SDS011;6425;50.316;8.114;2023-04-15T08:03:00;9.4;;;5.8;;
12721;SDS011;6425;50.316;8.114;2023-04-15T08:06:00;8.1;;;4.8;;
12721;SDS011;6425;50.316;8.114;2023-04-15T08:09:00;8.1;;;4.8;;
12721;SDS011;6425;50.316;8.114;2023-04-15T08:12:00;8;;;4.7;;
12721;SDS011;6425;50.316;8.114;2023-04-15T08:15:00;8;;;4.7;;
12721;SDS011;6425;50.316;8.114;2023-04-15T08:18:00;9.5;;;4.9;;
12721;SDS011;6425;50.316;8.114;2023-04-15T08:21:00;7.7;;;5.1;;
12721;SDS011;6425;50.316;8.114;2023-04-15T08:24:00;7.7;;;5.1;;
12721;SDS011;6425;50.316;8.114;2023-04-15T08:27:00;8.6;;;5.2;;
12721;SDS011;6425;50.316;8.114;2023-04-15T08:30:00;8.6;;;5.2;;
12721;SDS011;6425;50.316;8.114;2023-04-15T08:33:00;6.8;;;5;;
12721;SDS011;6425;50.316;8.114;2023-04-15T08:36:00;9.6;;;5.4;;
12721;SDS011;6425;50.316;8.114;2023-04-15T08:39:00;9.6;;;5.4;;
12721;SDS011;6425;50.316;8.114;2023-04-15T08:42:00;8;;;5.4;;
12721;SDS011;6425;50.316;8.114;2023-04-15T08:45:00;8;;;5.4;;
12721;SDS011;6425;50.316;8.114;2023-04-15T08:48:00;7.1;;;5.3;;
12721;SDS011;6425;50.316;8.114;2023-04-15T08:51:00;10.3;;;6.2;;
12721;SDS011;6425;50.316;8.114;2023-04-15T08:54:00;10.3;;;6.2;;
12721;SDS011;6425;50.316;8.114;2023-04-15T08:57:00;8.3;;;5.5;;
12721;SDS011;6425;50.316;8.114;2023-04-15T09:00:00;8.3;;;5.5;;
12721;SDS011;6425;50.316;8.114;2023-04-15T09:03:00;8.8;;;6.1;;
12721;SDS011;6425;50.316;8.114;2023-04-15T09:06:00;11.3;;;6.2;;
12721;SDS011;6425;50.316;8.114;2023-04-15T09:09:00;11.3;;;6.2;;
12721;SDS011;6425;50.316;8.114;2023-04-15T09:12:00;9;;;7;;
12721;SDS011;6425;50.316;8.114;2023-04-15T09:15:00;9;;;7;;
12721;SDS011;6425;50.316;8.114;2023-04-15T09:18:00;9.3;;;6.2;;
12721;SDS011;6425;50.316;8.114;2023-04-15T09:21:03;12.3;;;8.1;;
12721;SDS011;6425;50.316;8.114;2023-04-15T09:24:00;12.3;;;8.1;;
12721;SDS011;6425;50.316;8.114;2023-04-15T09:27:00;7.1;;;5.4;;
12721;SDS011;6425;50.316;8.114;2023-04-15T09:30:00;6.9;;;5.5;;
12721;SDS011;6425;50.316;8.114;2023-04-15T09:33:00;6.6;;;5.9;;
12721;SDS011;6425;50.316;8.114;2023-04-15T09:36:00;8.4;;;4.9;;
12721;SDS011;6425;50.316;8.114;2023-04-15T09:39:00;8.4;;;4.9;;
12721;SDS011;6425;50.316;8.114;2023-04-15T09:42:03;6.4;;;5.3;;
12721;SDS011;6425;50.316;8.114;2023-04-15T09:45:07;8.4;;;5.2;;
12721;SDS011;6425;50.316;8.114;2023-04-15T09:48:13;8.4;;;5.2;;
12721;SDS011;6425;50.316;8.114;2023-04-15T09:51:00;5.9;;;4.6;;
12721;SDS011;6425;50.316;8.114;2023-04-15T09:54:00;5.9;;;4.6;;
12721;SDS011;6425;50.316;8.114;2023-04-15T09:57:03;4.1;;;3.6;;
12721;SDS011;6425;50.316;8.114;2023-04-15T10:00:00;5.4;;;4.5;;
12721;SDS011;6425;50.316;8.114;2023-04-15T10:03:00;5.4;;;4.5;;
12721;SDS011;6425;50.316;8.114;2023-04-15T10:06:00;5.5;;;4.1;;
12721;SDS011;6425;50.316;8.114;2023-04-15T10:09:00;5.5;;;4.1;;
12721;SDS011;6425;50.316;8.114;2023-04-15T10:12:00;3.8;;;3.5;;
12721;SDS011;6425;50.316;8.114;2023-04-15T10:15:02;5.8;;;3.1;;
12721;SDS011;6425;50.316;8.114;2023-04-15T10:18:00;5.8;;;3.1;;
12721;SDS011;6425;50.316;8.114;2023-04-15T10:21:00;2.8;;;2;;
12721;SDS011;6425;50.316;8.114;2023-04-15T10:24:00;2.8;;;2;;
12721;SDS011;6425;50.316;8.114;2023-04-15T10:27:00;1.2;;;1.1;;
12721;SDS011;6425;50.316;8.114;2023-04-15T10:30:00;1.7;;;1.1;;
12721;SDS011;6425;50.316;8.114;2023-04-15T10:33:00;1.7;;;1.1;;
12721;SDS011;6425;50.316;8.114;2023-04-15T10:36:00;3.1;;;2.1;;
12721;SDS011;6425;50.316;8.114;2023-04-15T10:39:00;3.1;;;2.1;;
12721;SDS011;6425;50.316;8.114;2023-04-15T10:42:04;3.9;;;3.3;;
12721;SDS011;6425;50.316;8.114;2023-04-15T10:45:00;4.9;;;4.2;;
12721;SDS011;6425;50.316;8.114;2023-04-15T10:48:00;4.9;;;4.2;;
12721;SDS011;6425;50.316;8.114;2023-04-15T10:51:00;5.6;;;3.9;;
12721;SDS011;6425;50.316;8.114;2023-04-15T10:54:00;5.6;;;3.9;;
12721;SDS011;6425;50.316;8.114;2023-04-15T10:57:06;2.1;;;1.9;;
12721;SDS011;6425;50.316;8.114;2023-04-15T11:00:01;3.2;;;3;;
12721;SDS011;6425;50.316;8.114;2023-04-15T11:03:04;3.2;;;3;;
12721;SDS011;6425;50.316;8.114;2023-04-15T11:06:00;2.5;;;2.3;;
12721;SDS011;6425;50.316;8.114;2023-04-15T11:09:00;2.5;;;2.3;;
12721;SDS011;6425;50.316;8.114;2023-04-15T11:12:03;2.1;;;1.4;;
12721;SDS011;6425;50.316;8.114;2023-04-15T11:15:00;1.4;;;1.4;;
12721;SDS011;6425;50.316;8.114;2023-04-15T11:18:07;1.4;;;1.4;;
12721;SDS011;6425;50.316;8.114;2023-04-15T11:21:01;2.8;;;2.7;;
12721;SDS011;6425;50.316;8.114;2023-04-15T11:24:00;2.8;;;2.7;;
12721;SDS011;6425;50.316;8.114;2023-04-15T11:27:00;2.5;;;2.4;;
12721;SDS011;6425;50.316;8.114;2023-04-15T11:30:00;2.3;;;1.5;;
12721;SDS011;6425;50.316;8.114;2023-04-15T11:33:00;2.3;;;1.5;;
12721;SDS011;6425;50.316;8.114;2023-04-15T11:36:00;2;;;1.9;;
12721;SDS011;6425;50.316;8.114;2023-04-15T11:39:00;2;;;1.9;;
12721;SDS011;6425;50.316;8.114;2023-04-15T11:42:00;5.2;;;4.7;;
12721;SDS011;6425;50.316;8.114;2023-04-15T11:45:05;3.9;;;3.6;;
12721;SDS011;6425;50.316;8.114;2023-04-15T11:48:07;3.9;;;3.6;;
12721;SDS011;6425;50.316;8.114;2023-04-15T11:51:00;4.2;;;3;;
12721;SDS011;6425;50.316;8.114;2023-04-15T11:54:00;4.2;;;3;;
12721;SDS011;6425;50.316;8.114;2023-04-15T11:57:00;5.1;;;3.9;;
12721;SDS011;6425;50.316;8.114;2023-04-15T12:00:00;4.4;;;4;;
12721;SDS011;6425;50.316;8.114;2023-04-15T12:03:10;4.4;;;4;;
12721;SDS011;6425;50.316;8.114;2023-04-15T12:06:04;3.5;;;3.2;;
12721;SDS011;6425;50.316;8.114;2023-04-15T12:09:02;3.5;;;3.2;;
12721;SDS011;6425;50.316;8.114;2023-04-15T12:12:00;2.2;;;2;;
12721;SDS011;6425;50.316;8.114;2023-04-15T12:15:00;3.6;;;3.4;;
12721;SDS011;6425;50.316;8.114;2023-04-15T12:18:00;3.6;;;3.4;;
12721;SDS011;6425;50.316;8.114;2023-04-15T12:21:03;2.4;;;2.3;;
12721;SDS011;6425;50.316;8.114;2023-04-15T12:24:00;2.4;;;2.3;;
12721;SDS011;6425;50.316;8.114;2023-04-15T12:27:01;3.2;;;3;;
12721;SDS011;6425;50.316;8.114;2023-04-15T12:30:02;3.3;;;3.1;;
12721;SDS011;6425;50.316;8.114;2023-04-15T12:33:00;3.3;;;3.1;;
12721;SDS011;6425;50.316;8.114;2023-04-15T12:36:00;3;;;2.7;;
12721;SDS011;6425;50.316;8.114;2023-04-15T12:39:00;3;;;2.7;;
12721;SDS011;6425;50.316;8.114;2023-04-15T12:42:00;2.6;;;2.4;;
12721;SDS011;6425;50.316;8.114;2023-04-15T12:45:00;4;;;3.8;;
12721;SDS011;6425;50.316;8.114;2023-04-15T12:48:00;4;;;3.8;;
12721;SDS011;6425;50.316;8.114;2023-04-15T12:51:00;3.4;;;3.2;;
12721;SDS011;6425;50.316;8.114;2023-04-15T12:54:00;3.4;;;3.2;;
12721;SDS011;6425;50.316;8.114;2023-04-15T12:57:00;4.3;;;3.9;;
12721;SDS011;6425;50.316;8.114;2023-04-15T13:00:00;5.3;;;4.9;;
12721;SDS011;6425;50.316;8.114;2023-04-15T13:03:00;5.3;;;4.9;;
12721;SDS011;6425;50.316;8.114;2023-04-15T13:06:00;3.7;;;3.3;;
12721;SDS011;6425;50.316;8.114;2023-04-15T13:09:00;3.9;;;3.5;;
12721;SDS011;6425;50.316;8.114;2023-04-15T13:12:00;4.8;;;4.4;;
12721;SDS011;6425;50.316;8.114;2023-04-15T13:15:00;5;;;4.5;;
12721;SDS011;6425;50.316;8.114;2023-04-15T13:18:00;5;;;4.5;;
12721;SDS011;6425;50.316;8.114;2023-04-15T13:21:00;1.9;;;1.8;;
12721;SDS011;6425;50.316;8.114;2023-04-15T13:24:00;2;;;1.9;;
12721;SDS011;6425;50.316;8.114;2023-04-15T13:27:00;2;;;1.9;;
12721;SDS011;6425;50.316;8.114;2023-04-15T13:30:00;2.9;;;2.8;;
12721;SDS011;6425;50.316;8.114;2023-04-15T13:33:00;2.9;;;2.8;;
12721;SDS011;6425;50.316;8.114;2023-04-15T13:36:00;2.4;;;2.3;;
12721;SDS011;6425;50.316;8.114;2023-04-15T13:39:00;4.3;;;4;;
12721;SDS011;6425;50.316;8.114;2023-04-15T13:42:00;4.3;;;4;;
12721;SDS011;6425;50.316;8.114;2023-04-15T13:45:00;3.6;;;3.4;;
12721;SDS011;6425;50.316;8.114;2023-04-15T13:48:00;3.6;;;3.4;;
12721;SDS011;6425;50.316;8.114;2023-04-15T13:51:00;4.3;;;3.9;;
12721;SDS011;6425;50.316;8.114;2023-04-15T13:54:00;4.9;;;4.5;;
12721;SDS011;6425;50.316;8.114;2023-04-15T13:57:00;4.9;;;4.5;;
12721;SDS011;6425;50.316;8.114;2023-04-15T14:00:00;6.9;;;5.8;;
12721;SDS011;6425;50.316;8.114;2023-04-15T14:03:00;6.9;;;5.8;;
12721;SDS011;6425;50.316;8.114;2023-04-15T14:06:00;8;;;7.3;;
12721;SDS011;6425;50.316;8.114;2023-04-15T14:09:00;8.4;;;7.5;;
12721;SDS011;6425;50.316;8.114;2023-04-15T14:12:00;8.4;;;7.5;;
12721;SDS011;6425;50.316;8.114;2023-04-15T14:15:00;10;;;9.1;;
12721;SDS011;6425;50.316;8.114;2023-04-15T14:18:00;10;;;9.1;;
12721;SDS011;6425;50.316;8.114;2023-04-15T14:21:00;10.7;;;9.6;;
12721;SDS011;6425;50.316;8.114;2023-04-15T14:24:00;11.8;;;10.6;;
12721;SDS011;6425;50.316;8.114;2023-04-15T14:27:00;11.8;;;10.6;;
12721;SDS011;6425;50.316;8.114;2023-04-15T14:30:00;10.9;;;8.9;;
12721;SDS011;6425;50.316;8.114;2023-04-15T14:33:00;10.9;;;8.9;;
12721;SDS011;6425;50.316;8.114;2023-04-15T14:36:00;8.7;;;7.5;;
12721;SDS011;6425;50.316;8.114;2023-04-15T14:39:00;8.7;;;7.8;;
12721;SDS011;6425;50.316;8.114;2023-04-15T14:42:00;8.7;;;7.8;;
12721;SDS011;6425;50.316;8.114;2023-04-15T14:45:00;8.4;;;7.5;;
12721;SDS011;6425;50.316;8.114;2023-04-15T14:48:00;8.4;;;7.5;;
12721;SDS011;6425;50.316;8.114;2023-04-15T14:51:00;8;;;7.2;;
12721;SDS011;6425;50.316;8.114;2023-04-15T14:54:00;7.9;;;7.1;;
12721;SDS011;6425;50.316;8.114;2023-04-15T14:57:00;7.9;;;7.1;;
12721;SDS011;6425;50.316;8.114;2023-04-15T15:00:00;6.9;;;6.1;;
12721;SDS011;6425;50.316;8.114;2023-04-15T15:03:00;6.9;;;6.1;;
12721;SDS011;6425;50.316;8.114;2023-04-15T15:06:00;9.6;;;8.5;;
12721;SDS011;6425;50.316;8.114;2023-04-15T15:09:00;9.7;;;8.2;;
12721;SDS011;6425;50.316;8.114;2023-04-15T15:12:00;9.7;;;8.2;;
12721;SDS011;6425;50.316;8.114;2023-04-15T15:15:00;10.2;;;8.6;;
12721;SDS011;6425;50.316;8.114;2023-04-15T15:18:00;10.2;;;8.6;;
12721;SDS011;6425;50.316;8.114;2023-04-15T15:21:00;9.8;;;8.8;;
12721;SDS011;6425;50.316;8.114;2023-04-15T15:24:00;10.1;;;7.6;;
12721;SDS011;6425;50.316;8.114;2023-04-15T15:27:00;10.1;;;7.6;;
12721;SDS011;6425;50.316;8.114;2023-04-15T15:30:00;12;;;10.3;;
12721;SDS011;6425;50.316;8.114;2023-04-15T15:33:00;12;;;10.3;;
12721;SDS011;6425;50.316;8.114;2023-04-15T15:36:00;11.6;;;9.2;;
12721;SDS011;6425;50.316;8.114;2023-04-15T15:39:00;11.4;;;10.1;;
12721;SDS011;6425;50.316;8.114;2023-04-15T15:42:00;11.4;;;10.1;;
12721;SDS011;6425;50.316;8.114;2023-04-15T15:45:02;9;;;8;;
12721;SDS011;6425;50.316;8.114;2023-04-15T15:48:00;9;;;8;;
12721;SDS011;6425;50.316;8.114;2023-04-15T15:51:00;12.6;;;10.8;;
12721;SDS011;6425;50.316;8.114;2023-04-15T15:54:00;12.6;;;10;;
12721;SDS011;6425;50.316;8.114;2023-04-15T15:57:00;12.6;;;10;;
12721;SDS011;6425;50.316;8.114;2023-04-15T16:00:00;11;;;8.5;;
12721;SDS011;6425;50.316;8.114;2023-04-15T16:03:00;11;;;8.5;;
12721;SDS011;6425;50.316;8.114;2023-04-15T16:06:00;10.4;;;8.1;;
12721;SDS011;6425;50.316;8.114;2023-04-15T16:09:00;11.1;;;8.6;;
12721;SDS011;6425;50.316;8.114;2023-04-15T16:12:00;11.1;;;8.6;;
12721;SDS011;6425;50.316;8.114;2023-04-15T16:15:00;11.8;;;10.4;;
12721;SDS011;6425;50.316;8.114;2023-04-15T16:18:00;8;;;7.2;;
12721;SDS011;6425;50.316;8.114;2023-04-15T16:21:00;8;;;7.2;;
12721;SDS011;6425;50.316;8.114;2023-04-15T16:24:00;10.3;;;7.6;;
12721;SDS011;6425;50.316;8.114;2023-04-15T16:27:00;10.3;;;7.6;;
12721;SDS011;6425;50.316;8.114;2023-04-15T16:30:00;16.1;;;12.7;;
12721;SDS011;6425;50.316;8.114;2023-04-15T16:33:00;13.4;;;9.8;;
12721;SDS011;6425;50.316;8.114;2023-04-15T16:36:00;13.4;;;9.8;;
12721;SDS011;6425;50.316;8.114;2023-04-15T16:39:00;11.1;;;8.8;;
12721;SDS011;6425;50.316;8.114;2023-04-15T16:42:00;11.1;;;8.8;;
12721;SDS011;6425;50.316;8.114;2023-04-15T16:45:00;10.4;;;9.3;;
12721;SDS011;6425;50.316;8.114;2023-04-15T16:48:00;10.4;;;9.3;;
12721;SDS011;6425;50.316;8.114;2023-04-15T16:51:00;9.8;;;8.6;;
12721;SDS011;6425;50.316;8.114;2023-04-15T16:54:00;10.9;;;9;;
12721;SDS011;6425;50.316;8.114;2023-04-15T16:57:00;10.9;;;9;;
12721;SDS011;6425;50.316;8.114;2023-04-15T17:00:00;8.6;;;7.7;;
12721;SDS011;6425;50.316;8.114;2023-04-15T17:03:00;9.2;;;8.2;;
12721;SDS011;6425;50.316;8.114;2023-04-15T17:06:00;9.2;;;8.2;;
12721;SDS011;6425;50.316;8.114;2023-04-15T17:09:00;9;;;8.1;;
12721;SDS011;6425;50.316;8.114;2023-04-15T17:12:00;9;;;8.1;;
12721;SDS011;6425;50.316;8.114;2023-04-15T17:15:00;25.8;;;22;;
12721;SDS011;6425;50.316;8.114;2023-04-15T17:18:00;15.3;;;13.2;;
12721;SDS011;6425;50.316;8.114;2023-04-15T17:21:00;15.3;;;13.2;;
12721;SDS011;6425;50.316;8.114;2023-04-15T17:24:00;19.5;;;16.6;;
12721;SDS011;6425;50.316;8.114;2023-04-15T17:27:00;19.5;;;16.6;;
12721;SDS011;6425;50.316;8.114;2023-04-15T17:30:00;14.3;;;11.5;;
12721;SDS011;6425;50.316;8.114;2023-04-15T17:33:00;27.8;;;23.7;;
12721;SDS011;6425;50.316;8.114;2023-04-15T17:36:00;27.8;;;23.7;;
12721;SDS011;6425;50.316;8.114;2023-04-15T17:39:00;16;;;12.4;;
12721;SDS011;6425;50.316;8.114;2023-04-15T17:42:00;16;;;12.4;;
12721;SDS011;6425;50.316;8.114;2023-04-15T17:45:00;11.8;;;10.6;;
12721;SDS011;6425;50.316;8.114;2023-04-15T17:48:00;10.4;;;8.5;;
12721;SDS011;6425;50.316;8.114;2023-04-15T17:51:00;10.4;;;8.5;;
12721;SDS011;6425;50.316;8.114;2023-04-15T17:54:00;12.8;;;10.1;;
12721;SDS011;6425;50.316;8.114;2023-04-15T17:57:00;12.8;;;10.1;;
12721;SDS011;6425;50.316;8.114;2023-04-15T18:00:00;17.5;;;15.2;;
12721;SDS011;6425;50.316;8.114;2023-04-15T18:03:00;11.3;;;9.5;;
12721;SDS011;6425;50.316;8.114;2023-04-15T18:06:00;11.3;;;9.5;;
12721;SDS011;6425;50.316;8.114;2023-04-15T18:09:00;11;;;9.5;;
12721;SDS011;6425;50.316;8.114;2023-04-15T18:12:00;11;;;9.5;;
12721;SDS011;6425;50.316;8.114;2023-04-15T18:15:00;12.9;;;10.7;;
12721;SDS011;6425;50.316;8.114;2023-04-15T18:18:00;29.4;;;20.1;;
12721;SDS011;6425;50.316;8.114;2023-04-15T18:21:00;29.4;;;20.1;;
12721;SDS011;6425;50.316;8.114;2023-04-15T18:24:00;11.9;;;10.2;;
12721;SDS011;6425;50.316;8.114;2023-04-15T18:27:00;11.9;;;10.2;;
12721;SDS011;6425;50.316;8.114;2023-04-15T18:30:00;8.8;;;8;;
12721;SDS011;6425;50.316;8.114;2023-04-15T18:33:00;8.6;;;7.3;;
12721;SDS011;6425;50.316;8.114;2023-04-15T18:36:00;8.6;;;7.3;;
12721;SDS011;6425;50.316;8.114;2023-04-15T18:39:00;8.9;;;8;;
12721;SDS011;6425;50.316;8.114;2023-04-15T18:42:00;8.9;;;8;;
12721;SDS011;6425;50.316;8.114;2023-04-15T18:45:00;12.2;;;10.9;;
12721;SDS011;6425;50.316;8.114;2023-04-15T18:48:00;10.6;;;9.5;;
12721;SDS011;6425;50.316;8.114;2023-04-15T18:51:00;10.6;;;9.5;;
12721;SDS011;6425;50.316;8.114;2023-04-15T18:54:00;8;;;7.2;;
12721;SDS011;6425;50.316;8.114;2023-04-15T18:57:00;8;;;7.2;;